No particular awareness of the weather is required.    There are no Weather-warnings


Meteo18 Weather Cam more information Meteo18 Weather Cam


Thunder radar more information blitzortung!


Rain radar more information rain snow radar


Visit our other weather sites:

Template documentation
and downloads

And another site



Weather Underground History page Text

Daily Summary for July 31, 2017 Units:  English    Metric   Both
« Previous Day
Next Day »
Daily Weekly Monthly Yearly Custom
  High: Low: Average:
Temperature: TemperatureC °F 14.2 °F 19.9 °F
Dew Point: DewpointC °F 12.2 °F 14.4 °F
Humidity: Humidity % 54 % 71 %
Wind Speed: WindSpeedKMH mph 0.0 mph 4.1 mph
Wind Gust: WindSpeedGustKMH mph - -
Wind:- - SSE
Pressure: PressurehPa in 1012.8 in -
Precipitation: 16.5 in    
Historical Graphs
 
 
Tabular Data for July 31, 2017
Time Temperature Dew Point Pressure Wind Wind Speed Wind Gust Humidity Rainfall Rate (Hourly)
TemperatureC °F DewpointC °F PressurehPa in Calm     Humidity % HourlyPrecipMM in
00:02 19.7 °F 14.1 °F 1015.8 in SSW 1.6 mph 6.4 mph 70 % 0.0 in
00:12 19.4 °F 14.0 °F 1015.8 in South 4.8 mph 6.4 mph 71 % 0.0 in
00:17 19.3 °F 13.9 °F 1016.1 in SSW 3.2 mph 8.0 mph 71 % 0.0 in
00:22 19.3 °F 13.7 °F 1016.1 in SW 3.2 mph 8.0 mph 70 % 0.0 in
00:32 19.3 °F 13.7 °F 1016.1 in SSW 1.6 mph 8.0 mph 70 % 0.0 in
00:37 19.4 °F 13.8 °F 1016.1 in SW 3.2 mph 8.0 mph 70 % 0.0 in
00:47 19.3 °F 13.7 °F 1016.1 in Calm   6.4 mph 70 % 0.0 in
00:52 19.2 °F 13.8 °F 1016.1 in Calm   6.4 mph 71 % 0.0 in
01:02 18.9 °F 13.7 °F 1016.5 in Calm   3.2 mph 72 % 0.0 in
01:09 18.8 °F 13.6 °F 1016.5 in Calm     72 % 0.0 in
01:17 18.9 °F 13.5 °F 1016.5 in WSW 1.6 mph 1.6 mph 71 % 0.0 in
01:22 18.9 °F 13.5 °F 1016.1 in Calm   3.2 mph 71 % 0.0 in
01:32 18.9 °F 13.5 °F 1016.1 in Calm   3.2 mph 71 % 0.0 in
01:42 18.6 °F 13.7 °F 1016.1 in Calm   1.6 mph 73 % 0.0 in
01:52 18.2 °F 13.5 °F 1016.1 in Calm   1.6 mph 74 % 0.0 in
02:02 18.1 °F 13.4 °F 1016.1 in SE 1.6 mph 3.2 mph 74 % 0.0 in
02:07 18.1 °F 13.4 °F 1016.1 in Calm   3.2 mph 74 % 0.0 in
02:12 18.0 °F 13.3 °F 1016.1 in Calm   3.2 mph 74 % 0.0 in
02:17 17.9 °F 13.4 °F 1016.1 in Calm   1.6 mph 75 % 0.0 in
02:22 17.7 °F 13.6 °F 1016.1 in Calm   1.6 mph 77 % 0.0 in
02:27 17.4 °F 13.5 °F 1016.1 in Calm   1.6 mph 78 % 0.0 in
02:32 17.3 °F 13.6 °F 1016.1 in Calm     79 % 0.0 in
02:42 17.6 °F 13.5 °F 1016.1 in Calm   1.6 mph 77 % 0.0 in
02:52 17.7 °F 13.4 °F 1016.1 in Calm   3.2 mph 76 % 0.0 in
02:57 17.6 °F 13.5 °F 1016.1 in Calm   1.6 mph 77 % 0.0 in
03:02 17.4 °F 13.3 °F 1016.1 in Calm   1.6 mph 77 % 0.0 in
03:12 17.3 °F 13.4 °F 1015.8 in Calm   1.6 mph 78 % 0.0 in
03:17 17.2 °F 13.1 °F 1015.8 in Calm   1.6 mph 77 % 0.0 in
03:22 17.1 °F 13.2 °F 1015.8 in Calm   1.6 mph 78 % 0.0 in
03:32 17.2 °F 13.1 °F 1015.8 in Calm   4.8 mph 77 % 0.0 in
03:42 17.3 °F 13.2 °F 1015.5 in West 1.6 mph 4.8 mph 77 % 0.0 in
03:47 17.2 °F 13.1 °F 1015.5 in WNW 3.2 mph 4.8 mph 77 % 0.0 in
03:52 17.2 °F 13.1 °F 1015.5 in WNW 3.2 mph 4.8 mph 77 % 0.0 in
03:57 17.2 °F 13.1 °F 1015.5 in Calm   4.8 mph 77 % 0.0 in
04:02 17.2 °F 13.1 °F 1015.5 in WNW 3.2 mph 6.4 mph 77 % 0.0 in
04:12 17.4 °F 13.1 °F 1015.5 in NE 3.2 mph 6.4 mph 76 % 0.0 in
04:17 17.3 °F 13.0 °F 1015.8 in ESE 3.2 mph 8.0 mph 76 % 0.0 in
04:22 17.3 °F 13.0 °F 1015.5 in Calm   8.0 mph 76 % 0.0 in
04:32 16.7 °F 13.0 °F 1015.5 in Calm   6.4 mph 79 % 0.0 in
04:42 16.2 °F 12.7 °F 1015.8 in Calm   6.4 mph 80 % 0.0 in
04:47 15.9 °F 12.8 °F 1015.8 in Calm   4.8 mph 82 % 0.0 in
04:52 15.7 °F 12.8 °F 1015.8 in Calm   1.6 mph 83 % 0.0 in
04:57 15.7 °F 12.8 °F 1015.8 in Calm   1.6 mph 83 % 0.0 in
05:02 15.6 °F 12.7 °F 1015.5 in Calm   1.6 mph 83 % 0.0 in
05:12 15.9 °F 12.8 °F 1015.5 in Calm   1.6 mph 82 % 0.0 in
05:17 15.6 °F 12.5 °F 1015.8 in WNW 1.6 mph 1.6 mph 82 % 0.0 in
05:22 15.3 °F 12.6 °F 1015.8 in Calm   3.2 mph 84 % 0.0 in
05:32 15.2 °F 12.7 °F 1015.8 in Calm   3.2 mph 85 % 0.0 in
05:37 15.1 °F 12.6 °F 1016.1 in Calm   3.2 mph 85 % 0.0 in
05:42 15.2 °F 12.7 °F 1015.8 in Calm   1.6 mph 85 % 0.0 in
05:52 15.0 °F 12.5 °F 1016.1 in Calm     85 % 0.0 in
05:57 14.9 °F 12.4 °F 1016.1 in Calm     85 % 0.0 in
06:02 14.8 °F 12.5 °F 1015.8 in Calm     86 % 0.0 in
06:12 14.8 °F 12.5 °F 1016.1 in Calm     86 % 0.0 in
06:17 14.7 °F 12.4 °F 1016.1 in Calm   1.6 mph 86 % 0.0 in
06:22 14.6 °F 12.5 °F 1015.8 in Calm   1.6 mph 87 % 0.0 in
06:32 14.4 °F 12.3 °F 1016.1 in Calm   1.6 mph 87 % 0.0 in
06:42 14.4 °F 12.4 °F 1016.1 in Calm   1.6 mph 88 % 0.0 in
06:47 14.3 °F 12.3 °F 1016.1 in Calm   1.6 mph 88 % 0.0 in
06:52 14.2 °F 12.2 °F 1016.1 in Calm   3.2 mph 88 % 0.0 in
07:02 14.2 °F 12.4 °F 1016.1 in Calm   1.6 mph 89 % 0.0 in
07:12 14.2 °F 12.4 °F 1016.1 in Calm   1.6 mph 89 % 0.0 in
07:17 14.4 °F 12.6 °F 1015.8 in NNW 3.2 mph 3.2 mph 89 % 0.0 in
07:22 14.8 °F 13.0 °F 1015.8 in Calm   3.2 mph 89 % 0.0 in
07:32 15.2 °F 13.0 °F 1015.8 in North 3.2 mph 6.4 mph 87 % 0.0 in
07:42 15.5 °F 13.2 °F 1015.5 in Calm   6.4 mph 86 % 0.0 in
07:52 16.1 °F 13.6 °F 1015.5 in Calm   8.0 mph 85 % 0.0 in
07:57 16.4 °F 13.7 °F 1015.8 in Calm   6.4 mph 84 % 0.0 in
08:02 16.9 °F 14.0 °F 1015.8 in Calm   6.4 mph 83 % 0.0 in
08:07 17.3 °F 14.0 °F 1016.1 in Calm   3.2 mph 81 % 0.0 in
08:12 17.5 °F 14.2 °F 1016.1 in Calm   3.2 mph 81 % 0.0 in
08:17 17.4 °F 14.1 °F 1015.8 in Calm     81 % 0.0 in
08:22 17.4 °F 14.3 °F 1015.8 in Calm     82 % 0.0 in
08:32 17.7 °F 14.2 °F 1016.1 in Calm     80 % 0.0 in
08:37 17.8 °F 14.1 °F 1016.5 in Calm     79 % 0.0 in
08:42 17.7 °F 14.2 °F 1016.8 in Calm     80 % 0.0 in
08:52 17.7 °F 14.2 °F 1016.1 in Calm     80 % 0.0 in
09:02 18.0 °F 14.1 °F 1015.5 in NNE 6.4 mph   78 % 0.0 in
09:12 18.2 °F 14.1 °F 1015.8 in ENE 3.2 mph 9.7 mph 77 % 0.0 in
09:17 18.2 °F 13.9 °F 1015.8 in NE 4.8 mph 9.7 mph 76 % 0.0 in
09:22 18.3 °F 13.8 °F 1015.8 in NNE 8.0 mph 9.7 mph 75 % 0.0 in
09:32 18.3 °F 13.6 °F 1016.1 in NNE 4.8 mph 11.3 mph 74 % 0.0 in
09:42 18.6 °F 13.7 °F 1016.5 in ENE 4.8 mph 9.7 mph 73 % 0.0 in
09:47 18.8 °F 13.6 °F 1016.1 in NNE 4.8 mph 9.7 mph 72 % 0.0 in
09:52 18.8 °F 13.6 °F 1015.8 in NE 4.8 mph 8.0 mph 72 % 0.0 in
10:02 18.8 °F 13.4 °F 1015.8 in ENE 4.8 mph 9.7 mph 71 % 0.0 in
10:12 19.0 °F 14.0 °F 1016.8 in Calm   11.3 mph 73 % 0.0 in
10:17 19.3 °F 13.5 °F 1016.5 in ESE 1.6 mph 11.3 mph 69 % 0.0 in
10:22 19.4 °F 13.8 °F 1016.5 in ENE 4.8 mph 6.4 mph 70 % 0.0 in
10:32 19.3 °F 13.7 °F 1016.1 in ENE 6.4 mph 12.9 mph 70 % 0.0 in
10:37 19.3 °F 13.9 °F 1016.5 in East 1.6 mph 12.9 mph 71 % 0.0 in
10:42 19.6 °F 14.2 °F 1016.5 in ENE 3.2 mph 12.9 mph 71 % 0.0 in
10:52 20.3 °F 14.2 °F 1016.1 in Calm   6.4 mph 68 % 0.0 in
10:57 20.4 °F 14.3 °F 1016.1 in NE 3.2 mph 6.4 mph 68 % 0.0 in
11:02 20.4 °F 14.3 °F 1016.1 in ENE 1.6 mph 6.4 mph 68 % 0.0 in
11:12 20.1 °F 14.0 °F 1015.5 in Calm   6.4 mph 68 % 0.0 in
11:22 20.3 °F 14.0 °F 1015.5 in ENE 3.2 mph 12.9 mph 67 % 0.0 in
11:32 20.7 °F 14.1 °F 1015.5 in East 9.7 mph 11.3 mph 66 % 0.0 in
11:42 20.7 °F 13.4 °F 1015.5 in ENE 1.6 mph 12.9 mph 63 % 0.0 in
11:52 20.8 °F 13.7 °F 1015.5 in NE 6.4 mph 12.9 mph 64 % 0.0 in
11:57 21.1 °F 13.8 °F 1015.1 in NNE 1.6 mph 12.9 mph 63 % 0.0 in
12:02 21.4 °F 14.1 °F 1015.5 in ENE 3.2 mph 12.9 mph 63 % 0.0 in
12:12 21.7 °F 14.1 °F 1015.1 in NE 11.3 mph 16.1 mph 62 % 0.0 in
12:17 21.7 °F 13.8 °F 1015.1 in ENE 4.8 mph 16.1 mph 61 % 0.0 in
12:22 21.7 °F 13.8 °F 1015.1 in NNE 8.0 mph 16.1 mph 61 % 0.0 in
12:27 21.6 °F 13.8 °F 1015.1 in NNW 8.0 mph 16.1 mph 61 % 0.0 in
12:32 21.7 °F 14.6 °F 1015.1 in NE 9.7 mph 16.1 mph 64 % 0.0 in
12:42 21.4 °F 14.8 °F 1015.5 in East 1.6 mph 16.1 mph 66 % 0.0 in
12:47 21.4 °F 15.0 °F 1015.5 in SSE 1.6 mph 16.1 mph 67 % 0.0 in
12:52 21.6 °F 15.2 °F 1015.1 in ESE 4.8 mph 12.9 mph 67 % 0.0 in
13:02 21.7 °F 15.3 °F 1015.1 in ESE 8.0 mph 12.9 mph 67 % 0.0 in
13:12 21.7 °F 15.1 °F 1015.1 in NE 4.8 mph 9.7 mph 66 % 0.0 in
13:17 21.7 °F 14.8 °F 1015.1 in ENE 1.6 mph 12.9 mph 65 % 0.0 in
13:22 21.7 °F 14.8 °F 1015.1 in SSE 1.6 mph 12.9 mph 65 % 0.0 in
13:32 21.6 °F 14.7 °F 1015.1 in East 3.2 mph 12.9 mph 65 % 0.0 in
13:42 22.0 °F 15.1 °F 1014.8 in East 4.8 mph 11.3 mph 65 % 0.0 in
13:52 22.3 °F 14.9 °F 1014.8 in North 12.9 mph 14.5 mph 63 % 0.0 in
13:57 22.6 °F 15.2 °F 1014.4 in NE 3.2 mph 19.3 mph 63 % 0.0 in
14:02 23.2 °F 15.0 °F 1014.4 in NNE 4.8 mph 19.3 mph 60 % 0.0 in
14:12 22.9 °F 15.2 °F 1014.4 in ENE 9.7 mph 16.1 mph 62 % 0.0 in
14:17 23.1 °F 15.2 °F 1014.4 in ENE 4.8 mph 16.1 mph 61 % 0.0 in
14:22 23.2 °F 15.0 °F 1014.4 in ENE 6.4 mph 16.1 mph 60 % 0.0 in
14:32 23.3 °F 14.8 °F 1014.4 in NE 6.4 mph 16.1 mph 59 % 0.0 in
14:42 23.4 °F 14.9 °F 1014.4 in NNW 3.2 mph 16.1 mph 59 % 0.0 in
14:47 23.5 °F 15.0 °F 1014.4 in Calm   16.1 mph 59 % 0.0 in
14:52 23.7 °F 15.2 °F 1014.4 in East 3.2 mph 16.1 mph 59 % 0.0 in
15:02 24.1 °F 15.3 °F 1014.4 in NE 9.7 mph 12.9 mph 58 % 0.0 in
15:07 24.3 °F 15.2 °F 1014.1 in NE 4.8 mph 16.1 mph 57 % 0.0 in
15:12 24.5 °F 15.1 °F 1014.1 in NNW 1.6 mph 16.1 mph 56 % 0.0 in
15:22 24.6 °F 15.2 °F 1014.1 in East 8.0 mph 16.1 mph 56 % 0.0 in
15:27 24.8 °F 15.1 °F 1014.1 in NE 9.7 mph 14.5 mph 55 % 0.0 in
15:37 24.7 °F 15.3 °F 1014.1 in NNE 6.4 mph 16.1 mph 56 % 0.0 in
15:42 24.6 °F 15.2 °F 1013.8 in ESE 4.8 mph 16.1 mph 56 % 0.0 in
15:52 24.9 °F 15.2 °F 1013.8 in NE 4.8 mph 11.3 mph 55 % 0.0 in
15:57 25.1 °F 15.4 °F 1013.8 in Calm   11.3 mph 55 % 0.0 in
16:02 25.3 °F 15.6 °F 1013.4 in NNE 9.7 mph 11.3 mph 55 % 0.0 in
16:12 25.4 °F 15.7 °F 1013.4 in NNW 6.4 mph 14.5 mph 55 % 0.0 in
16:17 25.5 °F 15.5 °F 1013.4 in NNE 17.7 mph 17.7 mph 54 % 0.0 in
16:22 25.3 °F 15.9 °F 1013.1 in NE 8.0 mph 17.7 mph 56 % 0.0 in
16:32 25.3 °F 15.9 °F 1013.1 in NNE 8.0 mph 19.3 mph 56 % 0.0 in
16:42 25.3 °F 15.9 °F 1013.4 in NNE 6.4 mph 19.3 mph 56 % 0.0 in
16:52 25.6 °F 15.6 °F 1013.1 in NE 4.8 mph 12.9 mph 54 % 0.0 in
16:57 25.4 °F 16.3 °F 1013.1 in NE 11.3 mph 17.7 mph 57 % 0.0 in
17:02 25.2 °F 15.8 °F 1013.1 in NNW 3.2 mph 19.3 mph 56 % 0.0 in
17:12 25.2 °F 16.1 °F 1013.1 in NNE 6.4 mph 19.3 mph 57 % 0.0 in
17:17 25.2 °F 16.3 °F 1013.1 in North 3.2 mph 20.9 mph 58 % 0.0 in
17:22 25.4 °F 16.0 °F 1013.1 in NNE 12.9 mph 20.9 mph 56 % 0.0 in
17:32 25.1 °F 16.3 °F 1013.1 in NNW 4.8 mph 16.1 mph 58 % 0.0 in
17:42 24.8 °F 16.2 °F 1012.8 in NNE 12.9 mph 24.1 mph 59 % 0.0 in
17:52 24.7 °F 16.1 °F 1012.8 in NNE 4.8 mph 20.9 mph 59 % 0.0 in
17:57 24.8 °F 16.2 °F 1012.8 in NW 8.0 mph 19.3 mph 59 % 0.0 in
18:02 24.8 °F 16.5 °F 1012.8 in NNE 17.7 mph 19.3 mph 60 % 0.0 in
18:12 24.7 °F 16.4 °F 1012.8 in NE 9.7 mph 19.3 mph 60 % 0.0 in
18:17 24.6 °F 16.3 °F 1012.8 in NNW 6.4 mph 19.3 mph 60 % 0.0 in
18:22 24.6 °F 16.3 °F 1012.8 in NNW 8.0 mph 19.3 mph 60 % 0.0 in
18:32 24.4 °F 16.4 °F 1012.8 in NW 4.8 mph 17.7 mph 61 % 0.0 in
18:42 24.4 °F 16.4 °F 1012.8 in NNE 9.7 mph 19.3 mph 61 % 0.0 in
18:47 24.3 °F 16.3 °F 1012.8 in NNE 8.0 mph 19.3 mph 61 % 0.0 in
18:52 24.3 °F 16.6 °F 1012.8 in NNW 6.4 mph 19.3 mph 62 % 0.0 in
19:02 24.3 °F 16.3 °F 1012.8 in NNW 8.0 mph 19.3 mph 61 % 0.0 in
19:12 24.4 °F 16.4 °F 1012.8 in NE 4.8 mph 17.7 mph 61 % 0.0 in
19:17 24.4 °F 16.4 °F 1012.8 in North 9.7 mph 19.3 mph 61 % 0.0 in
19:22 24.3 °F 16.3 °F 1012.8 in West 1.6 mph 19.3 mph 61 % 0.0 in
19:32 24.1 °F 16.4 °F 1012.8 in NNW 4.8 mph 19.3 mph 62 % 0.0 in
19:42 24.1 °F 16.4 °F 1012.8 in NW 3.2 mph 17.7 mph 62 % 0.0 in
19:47 23.9 °F 16.4 °F 1012.8 in NE 6.4 mph 17.7 mph 63 % 0.0 in
19:52 23.9 °F 16.4 °F 1012.8 in NE 12.9 mph 17.7 mph 63 % 0.0 in
19:57 23.9 °F 16.4 °F 1012.8 in East 1.6 mph 14.5 mph 63 % 0.0 in
20:02 23.9 °F 16.4 °F 1012.8 in NW 4.8 mph 14.5 mph 63 % 0.0 in
20:12 23.8 °F 16.3 °F 1012.8 in NNW 4.8 mph 14.5 mph 63 % 0.0 in
20:17 23.7 °F 16.2 °F 1012.8 in NE 8.0 mph 17.7 mph 63 % 0.0 in
20:22 23.6 °F 16.1 °F 1012.8 in NNW 6.4 mph 17.7 mph 63 % 0.0 in
20:27 23.4 °F 16.0 °F 1012.8 in NNE 9.7 mph 17.7 mph 63 % 0.0 in
20:32 23.3 °F 15.9 °F 1012.8 in North 11.3 mph 17.7 mph 63 % 0.0 in
20:37 23.2 °F 16.0 °F 1012.8 in NNW 8.0 mph 19.3 mph 64 % 0.0 in
20:42 23.2 °F 16.0 °F 1012.8 in North 4.8 mph 19.3 mph 64 % 0.0 in
20:52 22.9 °F 16.0 °F 1012.8 in NNE 8.0 mph 16.1 mph 65 % 0.0 in
20:57 22.8 °F 15.9 °F 1012.8 in North 6.4 mph 12.9 mph 65 % 0.0 in
21:02 22.7 °F 15.8 °F 1012.8 in NNW 3.2 mph 12.9 mph 65 % 0.0 in
21:12 22.5 °F 15.8 °F 1012.8 in NNW 3.2 mph 12.9 mph 66 % 0.0 in
21:22 22.3 °F 15.9 °F 1012.8 in North 12.9 mph 12.9 mph 67 % 0.0 in
21:27 22.2 °F 15.8 °F 1013.1 in NW 1.6 mph 12.9 mph 67 % 0.0 in
21:32 22.2 °F 15.8 °F 1013.1 in NNW 6.4 mph 12.9 mph 67 % 0.0 in
21:42 22.1 °F 15.7 °F 1013.1 in North 6.4 mph 14.5 mph 67 % 0.0 in
21:47 21.8 °F 15.6 °F 1012.8 in North 9.7 mph 16.1 mph 68 % 0.0 in
21:52 21.4 °F 15.9 °F 1014.1 in WSW 9.7 mph 16.1 mph 71 % 0.0 in
22:02 19.2 °F 16.2 °F 1013.8 in WNW 14.5 mph 20.9 mph 83 % 0.5 in
22:12 17.9 °F 16.1 °F 1014.1 in North 4.8 mph 20.9 mph 89 % 7.1 in
22:17 17.9 °F 16.2 °F 1014.1 in NNW 6.4 mph 16.1 mph 90 % 7.6 in
22:22 17.9 °F 16.2 °F 1014.4 in North 6.4 mph 14.5 mph 90 % 7.6 in
22:32 18.1 °F 16.3 °F 1013.8 in WNW 8.0 mph 9.7 mph 89 % 7.6 in
22:42 18.1 °F 16.3 °F 1013.8 in NW 1.6 mph 12.9 mph 89 % 7.6 in
22:52 17.9 °F 16.1 °F 1014.8 in WNW 12.9 mph 17.7 mph 89 % 7.9 in
22:57 17.9 °F 15.9 °F 1014.1 in NNW 4.8 mph 16.1 mph 88 % 7.9 in
23:02 17.6 °F 15.8 °F 1014.4 in NNW 9.7 mph 16.1 mph 89 % 5.1 in
23:12 17.1 °F 15.6 °F 1014.8 in NW 4.8 mph 17.7 mph 91 % 2.8 in
23:17 17.0 °F 15.7 °F 1014.1 in NNW 8.0 mph 17.7 mph 92 % 4.8 in
23:22 17.0 °F 15.7 °F 1013.8 in ENE 3.2 mph 17.7 mph 92 % 4.8 in
23:27 17.0 °F 15.5 °F 1013.8 in North 9.7 mph 14.5 mph 91 % 4.8 in
23:32 17.1 °F 15.6 °F 1013.8 in NNW 4.8 mph 16.1 mph 91 % 4.8 in
23:42 17.1 °F 15.4 °F 1014.1 in WNW 17.7 mph 17.7 mph 90 % 4.8 in
23:52 16.4 °F 14.8 °F 1014.1 in NNW 4.8 mph 22.5 mph 90 % 6.1 in
23:57 16.2 °F 14.7 °F 1013.8 in East 8.0 mph 22.5 mph 91 % 8.6 in
Meteo18
Compliments of Weather Underground - 4 mb

Script developed by  Jim McMurry - jmcmurry@mwt.net Adapted for the template by  Wim van der Kuil - Leuven-Template.eu

You find our weather info also at:

European Weather Network

Weather Underground

Equipment we use:

Weather-station
Davis Vue

Weather-program
Meteobridge

Weather-server
Raspberry PI 2 B+

Provider
1 and 1

Davis Vue

Meteobridge

Raspberry PI 2 B+

1 and 1